createdAt,value
2017-07-21T00:00:14.755Z,1007.79
2017-07-21T00:01:14.438Z,1007.8
2017-07-21T00:02:14.415Z,1007.79
2017-07-21T00:03:14.396Z,1007.82
2017-07-21T00:04:14.374Z,1007.82
2017-07-21T00:05:14.354Z,1007.87
2017-07-21T00:06:14.333Z,1007.82
2017-07-21T00:07:14.315Z,1007.86
2017-07-21T00:08:14.293Z,1007.86
2017-07-21T00:09:14.274Z,1007.83
2017-07-21T00:10:14.254Z,1007.88
2017-07-21T00:11:14.332Z,1007.9
2017-07-21T00:12:14.215Z,1007.85
2017-07-21T00:13:14.196Z,1007.92
2017-07-21T00:14:14.174Z,1007.94
2017-07-21T00:15:14.157Z,1007.89
2017-07-21T00:16:14.138Z,1007.9
2017-07-21T00:17:14.113Z,1007.92
2017-07-21T00:18:14.095Z,1007.92
2017-07-21T00:19:14.074Z,1007.92
2017-07-21T00:20:14.055Z,1007.94
2017-07-21T00:21:14.034Z,1007.97
2017-07-21T00:22:14.091Z,1007.95
2017-07-21T00:23:13.994Z,1007.96
2017-07-21T00:24:13.976Z,1007.97
2017-07-21T00:25:13.953Z,1007.95
2017-07-21T00:26:13.934Z,1007.97
2017-07-21T00:27:13.912Z,1007.95
2017-07-21T00:28:13.895Z,1007.93
2017-07-21T00:29:13.872Z,1007.95
2017-07-21T00:30:13.855Z,1007.92
2017-07-21T00:31:13.831Z,1007.94
2017-07-21T00:32:13.812Z,1007.95
2017-07-21T00:33:13.791Z,1007.92
2017-07-21T00:34:13.773Z,1007.9
2017-07-21T00:35:13.752Z,1007.97
2017-07-21T00:36:13.732Z,1007.97
2017-07-21T00:37:13.715Z,1007.96
2017-07-21T00:38:13.695Z,1007.98
2017-07-21T00:39:13.670Z,1007.99
2017-07-21T00:40:13.651Z,1007.98
2017-07-21T00:41:13.630Z,1007.98
2017-07-21T00:42:13.613Z,1007.97
2017-07-21T00:43:13.589Z,1007.99
2017-07-21T00:44:13.570Z,1007.92
2017-07-21T00:45:13.548Z,1007.93
2017-07-21T00:46:13.532Z,1007.93
2017-07-21T00:47:13.508Z,1007.93
2017-07-21T00:48:13.489Z,1007.9
2017-07-21T00:49:13.472Z,1007.93
2017-07-21T00:50:13.448Z,1007.95
2017-07-21T00:51:13.427Z,1007.94
2017-07-21T00:52:13.408Z,1007.94
2017-07-21T00:53:13.386Z,1007.94
2017-07-21T00:54:13.370Z,1007.94
2017-07-21T00:55:13.346Z,1007.93
2017-07-21T00:56:13.327Z,1007.96
2017-07-21T00:57:13.305Z,1007.93
2017-07-21T00:58:13.287Z,1007.91
2017-07-21T00:59:13.267Z,1007.93
2017-07-21T01:00:13.248Z,1007.89
2017-07-21T01:01:13.225Z,1007.89
2017-07-21T01:02:13.206Z,1007.94
2017-07-21T01:03:13.184Z,1008
2017-07-21T01:04:13.167Z,1007.98
2017-07-21T01:05:13.144Z,1007.98
2017-07-21T01:06:13.124Z,1007.96
2017-07-21T01:07:13.107Z,1007.96
2017-07-21T01:08:13.087Z,1007.98
2017-07-21T01:09:13.063Z,1007.95
2017-07-21T01:10:13.042Z,1007.99
2017-07-21T01:11:13.026Z,1007.91
2017-07-21T01:12:13.001Z,1007.93
2017-07-21T01:13:12.984Z,1007.91
2017-07-21T01:14:12.962Z,1007.94
2017-07-21T01:15:12.942Z,1007.97
2017-07-21T01:16:12.921Z,1007.95
2017-07-21T01:17:12.898Z,1008.01
2017-07-21T01:18:12.880Z,1007.98
2017-07-21T01:19:12.857Z,1007.97
2017-07-21T01:20:12.838Z,1008.02
2017-07-21T01:21:12.819Z,1008.01
2017-07-21T01:22:12.797Z,1007.95
2017-07-21T01:23:12.778Z,1007.96
2017-07-21T01:24:12.757Z,1007.9
2017-07-21T01:25:12.737Z,1007.93
2017-07-21T01:26:12.718Z,1007.86
2017-07-21T01:27:12.695Z,1007.87
2017-07-21T01:28:12.675Z,1007.89
2017-07-21T01:29:12.654Z,1007.91
2017-07-21T01:30:12.637Z,1007.91
2017-07-21T01:31:12.616Z,1007.91
2017-07-21T01:32:13.593Z,1007.87
2017-07-21T01:33:12.574Z,1007.92
2017-07-21T01:34:12.553Z,1007.88
2017-07-21T01:35:12.536Z,1007.92
2017-07-21T01:36:12.514Z,1007.9
2017-07-21T01:37:12.491Z,1007.89
2017-07-21T01:38:12.471Z,1007.91
2017-07-21T01:39:12.451Z,1007.88
2017-07-21T01:40:12.430Z,1007.91
2017-07-21T01:41:12.408Z,1007.88
2017-07-21T01:42:12.439Z,1007.85
2017-07-21T01:43:12.368Z,1007.88
2017-07-21T01:44:12.347Z,1007.88
2017-07-21T01:45:12.329Z,1007.92
2017-07-21T01:46:12.312Z,1007.92
2017-07-21T01:47:12.286Z,1007.94
2017-07-21T01:48:12.317Z,1007.92
2017-07-21T01:49:12.244Z,1007.95
2017-07-21T01:50:12.225Z,1007.99
2017-07-21T01:51:12.210Z,1008.01
2017-07-21T01:52:12.183Z,1007.98
2017-07-21T01:53:12.164Z,1008
2017-07-21T01:54:12.142Z,1008.02
2017-07-21T01:55:12.122Z,1008
2017-07-21T01:56:12.104Z,1007.99
2017-07-21T01:57:12.081Z,1007.97
2017-07-21T01:58:12.061Z,1007.97
2017-07-21T01:59:12.040Z,1008.01
2017-07-21T02:00:12.019Z,1007.95
2017-07-21T02:01:12.000Z,1008
2017-07-21T02:02:11.979Z,1007.98
2017-07-21T02:03:11.957Z,1007.97
2017-07-21T02:04:11.938Z,1008.05
2017-07-21T02:05:11.916Z,1008.07
2017-07-21T02:06:11.898Z,1008.06
2017-07-21T02:07:11.873Z,1008.05
2017-07-21T02:08:11.859Z,1008.05
2017-07-21T02:09:11.834Z,1008.06
2017-07-21T02:10:11.820Z,1008.08
2017-07-21T02:11:11.794Z,1008.08
2017-07-21T02:12:11.772Z,1008.06
2017-07-21T02:13:11.753Z,1008.07
2017-07-21T02:14:11.732Z,1008.06
2017-07-21T02:15:11.711Z,1008.04
2017-07-21T02:16:11.692Z,1008.03
2017-07-21T02:17:11.670Z,1008.06
2017-07-21T02:18:11.648Z,1008.02
2017-07-21T02:19:11.628Z,1008.01
2017-07-21T02:20:11.609Z,1008.01
2017-07-21T02:21:11.588Z,1008.02
2017-07-21T02:22:11.566Z,1008.04
2017-07-21T02:23:11.548Z,1008.04
2017-07-21T02:24:11.526Z,1008.03
2017-07-21T02:25:11.504Z,1008.06
2017-07-21T02:26:11.486Z,1008.06
2017-07-21T02:27:11.464Z,1008.04
2017-07-21T02:28:11.443Z,1008.09
2017-07-21T02:29:11.422Z,1008.06
2017-07-21T02:30:11.400Z,1008.08
2017-07-21T02:31:11.382Z,1008.08
2017-07-21T02:32:11.362Z,1008.08
2017-07-21T02:33:11.340Z,1008.08
2017-07-21T02:34:11.328Z,1008.13
2017-07-21T02:35:11.298Z,1008.14
2017-07-21T02:36:11.276Z,1008.11
2017-07-21T02:37:11.255Z,1008.13
2017-07-21T02:38:11.237Z,1008.14
2017-07-21T02:39:11.266Z,1008.12
2017-07-21T02:40:11.194Z,1008.14
2017-07-21T02:41:11.176Z,1008.2
2017-07-21T02:42:11.152Z,1008.19
2017-07-21T02:43:11.131Z,1008.22
2017-07-21T02:44:11.111Z,1008.24
2017-07-21T02:45:11.090Z,1008.24
2017-07-21T02:46:11.071Z,1008.19
2017-07-21T02:47:11.052Z,1008.24
2017-07-21T02:48:11.029Z,1008.23
2017-07-21T02:49:11.008Z,1008.27
2017-07-21T02:50:10.988Z,1008.25
2017-07-21T02:51:10.967Z,1008.3
2017-07-21T02:52:10.946Z,1008.28
2017-07-21T02:53:10.925Z,1008.31
2017-07-21T02:54:10.906Z,1008.32
2017-07-21T02:55:10.884Z,1008.34
2017-07-21T02:56:10.863Z,1008.34
2017-07-21T02:57:10.846Z,1008.31
2017-07-21T02:58:10.821Z,1008.34
2017-07-21T02:59:10.801Z,1008.35
2017-07-21T03:00:10.780Z,1008.33
2017-07-21T03:01:10.761Z,1008.33
2017-07-21T03:02:10.788Z,1008.31
2017-07-21T03:03:10.718Z,1008.33
2017-07-21T03:04:10.697Z,1008.36
2017-07-21T03:05:10.676Z,1008.39
2017-07-21T03:06:10.655Z,1008.35
2017-07-21T03:07:10.631Z,1008.35
2017-07-21T03:08:10.615Z,1008.35
2017-07-21T03:09:10.596Z,1008.34
2017-07-21T03:10:10.573Z,1008.33
2017-07-21T03:11:10.553Z,1008.32
2017-07-21T03:12:10.532Z,1008.35
2017-07-21T03:13:10.510Z,1008.34
2017-07-21T03:14:10.489Z,1008.36
2017-07-21T03:15:10.466Z,1008.36
2017-07-21T03:16:10.447Z,1008.4
2017-07-21T03:17:10.427Z,1008.37
2017-07-21T03:18:10.407Z,1008.38
2017-07-21T03:19:10.383Z,1008.42
2017-07-21T03:20:10.362Z,1008.44
2017-07-21T03:21:10.342Z,1008.45
2017-07-21T03:22:10.323Z,1008.45
2017-07-21T03:23:10.304Z,1008.47
2017-07-21T03:24:10.281Z,1008.5
2017-07-21T03:25:10.260Z,1008.45
2017-07-21T03:26:10.238Z,1008.51
2017-07-21T03:27:10.217Z,1008.47
2017-07-21T03:28:10.196Z,1008.51
2017-07-21T03:29:10.178Z,1008.53
2017-07-21T03:30:10.156Z,1008.5
2017-07-21T03:31:10.135Z,1008.5
2017-07-21T03:32:10.113Z,1008.49
2017-07-21T03:33:10.092Z,1008.52
2017-07-21T03:34:10.123Z,1008.52
2017-07-21T03:35:10.052Z,1008.47
2017-07-21T03:36:10.034Z,1008.45
2017-07-21T03:37:10.011Z,1008.46
2017-07-21T03:38:09.988Z,1008.49
2017-07-21T03:39:09.969Z,1008.53
2017-07-21T03:40:09.948Z,1008.5
2017-07-21T03:41:09.928Z,1008.49
2017-07-21T03:42:09.915Z,1008.5
2017-07-21T03:43:09.885Z,1008.52
2017-07-21T03:44:09.864Z,1008.52
2017-07-21T03:45:09.845Z,1008.54
2017-07-21T03:46:09.825Z,1008.57
2017-07-21T03:47:09.801Z,1008.56
2017-07-21T03:48:09.780Z,1008.55
2017-07-21T03:49:09.760Z,1008.56
2017-07-21T03:50:09.738Z,1008.59
2017-07-21T03:51:09.718Z,1008.6
2017-07-21T03:52:09.696Z,1008.59
2017-07-21T03:53:09.676Z,1008.62
2017-07-21T03:54:09.657Z,1008.56
2017-07-21T03:55:09.685Z,1008.56
2017-07-21T03:56:09.614Z,1008.53
2017-07-21T03:57:09.593Z,1008.53
2017-07-21T03:58:09.571Z,1008.53
2017-07-21T03:59:09.552Z,1008.58
2017-07-21T04:00:09.535Z,1008.58
2017-07-21T04:01:09.511Z,1008.56
2017-07-21T04:02:09.491Z,1008.61
2017-07-21T04:03:09.479Z,1008.6
2017-07-21T04:04:09.449Z,1008.62
2017-07-21T04:05:09.584Z,1008.61
2017-07-21T04:06:09.406Z,1008.63
2017-07-21T04:07:09.385Z,1008.62
2017-07-21T04:08:09.365Z,1008.63
2017-07-21T04:09:09.353Z,1008.63
2017-07-21T04:10:09.323Z,1008.62
2017-07-21T04:11:09.302Z,1008.61
2017-07-21T04:12:09.283Z,1008.68
2017-07-21T04:13:09.261Z,1008.64
2017-07-21T04:14:09.248Z,1008.59
2017-07-21T04:15:09.220Z,1008.62
2017-07-21T04:16:09.200Z,1008.6
2017-07-21T04:17:09.183Z,1008.62
2017-07-21T04:18:09.157Z,1008.6
2017-07-21T04:19:09.142Z,1008.6
2017-07-21T04:20:09.117Z,1008.64
2017-07-21T04:21:09.097Z,1008.63
2017-07-21T04:22:09.082Z,1008.61
2017-07-21T04:23:09.057Z,1008.58
2017-07-21T04:24:09.036Z,1008.62
2017-07-21T04:25:09.017Z,1008.58
2017-07-21T04:26:08.995Z,1008.63
2017-07-21T04:27:08.976Z,1008.59
2017-07-21T04:28:08.961Z,1008.6
2017-07-21T04:29:08.934Z,1008.62
2017-07-21T04:30:08.914Z,1008.61
2017-07-21T04:31:08.914Z,1008.61
2017-07-21T04:32:08.878Z,1008.64
2017-07-21T04:33:08.859Z,1008.61
2017-07-21T04:34:08.837Z,1008.65
2017-07-21T04:35:08.827Z,1008.66
2017-07-21T04:36:08.798Z,1008.7
2017-07-21T04:37:08.790Z,1008.65
2017-07-21T04:38:08.809Z,1008.71
2017-07-21T04:39:08.738Z,1008.71
2017-07-21T04:40:08.718Z,1008.74
2017-07-21T04:41:08.700Z,1008.7
2017-07-21T04:42:08.680Z,1008.72
2017-07-21T04:43:08.664Z,1008.77
2017-07-21T04:44:08.637Z,1008.74
2017-07-21T04:45:08.623Z,1008.75
2017-07-21T04:46:08.603Z,1008.79
2017-07-21T04:47:08.584Z,1008.77
2017-07-21T04:48:08.568Z,1008.76
2017-07-21T04:49:08.544Z,1008.78
2017-07-21T04:50:08.526Z,1008.81
2017-07-21T04:51:08.507Z,1008.82
2017-07-21T04:52:08.488Z,1008.85
2017-07-21T04:53:08.485Z,1008.88
2017-07-21T04:54:08.450Z,1008.82
2017-07-21T04:55:08.436Z,1008.8
2017-07-21T04:56:08.412Z,1008.84
2017-07-21T04:57:08.413Z,1008.88
2017-07-21T04:58:08.378Z,1008.83
2017-07-21T04:59:08.361Z,1008.84
2017-07-21T05:00:08.339Z,1008.86
2017-07-21T05:01:08.323Z,1008.88
2017-07-21T05:02:08.301Z,1008.89
2017-07-21T05:03:08.284Z,1008.89
2017-07-21T05:04:08.267Z,1008.87
2017-07-21T05:05:08.248Z,1008.85
2017-07-21T05:06:08.230Z,1008.82
2017-07-21T05:07:08.213Z,1008.85
2017-07-21T05:08:08.194Z,1008.86
2017-07-21T05:09:08.177Z,1008.81
2017-07-21T05:10:08.158Z,1008.86
2017-07-21T05:11:08.141Z,1008.83
2017-07-21T05:12:08.123Z,1008.9
2017-07-21T05:13:08.107Z,1008.87
2017-07-21T05:14:08.095Z,1008.9
2017-07-21T05:15:08.073Z,1008.87
2017-07-21T05:16:08.054Z,1008.86
2017-07-21T05:17:08.038Z,1008.84
2017-07-21T05:18:08.019Z,1008.85
2017-07-21T05:19:08.007Z,1008.85
2017-07-21T05:20:07.986Z,1008.87
2017-07-21T05:21:07.969Z,1008.92
2017-07-21T05:22:07.951Z,1008.89
2017-07-21T05:23:07.936Z,1008.92
2017-07-21T05:24:07.915Z,1008.91
2017-07-21T05:25:07.900Z,1008.93
2017-07-21T05:26:07.884Z,1008.95
2017-07-21T05:27:07.873Z,1008.97
2017-07-21T05:28:07.850Z,1008.98
2017-07-21T05:29:07.833Z,1008.96
2017-07-21T05:30:07.817Z,1008.95
2017-07-21T05:31:07.802Z,1008.96
2017-07-21T05:32:07.787Z,1008.95
2017-07-21T05:33:07.767Z,1008.98
2017-07-21T05:34:07.751Z,1009.01
2017-07-21T05:35:07.733Z,1009.02
2017-07-21T05:36:07.718Z,1009.03
2017-07-21T05:37:07.704Z,1009.02
2017-07-21T05:38:07.735Z,1008.99
2017-07-21T05:39:07.668Z,1009.04
2017-07-21T05:40:07.658Z,1009.02
2017-07-21T05:41:07.639Z,1009.03
2017-07-21T05:42:07.625Z,1009.03
2017-07-21T05:43:07.604Z,1009.04
2017-07-21T05:44:07.589Z,1009.02
2017-07-21T05:45:07.581Z,1009.07
2017-07-21T05:46:07.558Z,1009.07
2017-07-21T05:47:07.543Z,1009.1
2017-07-21T05:48:07.528Z,1009.09
2017-07-21T05:49:07.511Z,1009.14
2017-07-21T05:50:07.547Z,1009.08
2017-07-21T05:51:07.480Z,1009.06
2017-07-21T05:52:07.465Z,1009.06
2017-07-21T05:53:07.450Z,1009.09
2017-07-21T05:54:07.437Z,1009.1
2017-07-21T05:55:07.421Z,1009.07
2017-07-21T05:56:07.410Z,1009.12
2017-07-21T05:57:07.390Z,1009.11
2017-07-21T05:58:07.374Z,1009.1
2017-07-21T05:59:07.362Z,1009.13
2017-07-21T06:00:07.347Z,1009.1
2017-07-21T06:01:07.330Z,1009.18
2017-07-21T06:02:07.317Z,1009.15
2017-07-21T06:03:07.305Z,1009.17
2017-07-21T06:04:07.288Z,1009.19
2017-07-21T06:05:07.274Z,1009.21
2017-07-21T06:06:07.262Z,1009.23
2017-07-21T06:07:07.247Z,1009.23
2017-07-21T06:08:07.241Z,1009.24
2017-07-21T06:09:07.217Z,1009.27
2017-07-21T06:10:07.203Z,1009.29
2017-07-21T06:11:07.243Z,1009.28
2017-07-21T06:12:07.177Z,1009.31
2017-07-21T06:13:07.162Z,1009.31
2017-07-21T06:14:07.148Z,1009.3
2017-07-21T06:15:07.134Z,1009.31
2017-07-21T06:16:07.123Z,1009.26
2017-07-21T06:17:07.107Z,1009.29
2017-07-21T06:18:07.103Z,1009.3
2017-07-21T06:19:07.082Z,1009.35
2017-07-21T06:20:07.068Z,1009.35
2017-07-21T06:21:07.053Z,1009.28
2017-07-21T06:22:07.040Z,1009.3
2017-07-21T06:23:07.052Z,1009.34
2017-07-21T06:24:07.013Z,1009.35
2017-07-21T06:25:07.005Z,1009.41
2017-07-21T06:26:06.990Z,1009.4
2017-07-21T06:27:06.979Z,1009.41
2017-07-21T06:28:06.963Z,1009.39
2017-07-21T06:29:06.948Z,1009.42
2017-07-21T06:30:06.941Z,1009.38
2017-07-21T06:31:06.930Z,1009.41
2017-07-21T06:32:06.965Z,1009.4
2017-07-21T06:33:06.904Z,1009.4
2017-07-21T06:34:06.896Z,1009.42
2017-07-21T06:35:06.879Z,1009.41
2017-07-21T06:36:06.866Z,1009.43
2017-07-21T06:37:06.852Z,1009.43
2017-07-21T06:38:06.841Z,1009.48
2017-07-21T06:39:06.830Z,1009.46
2017-07-21T06:40:06.846Z,1009.48
2017-07-21T06:41:06.806Z,1009.51
2017-07-21T06:42:06.794Z,1009.48
2017-07-21T06:43:06.781Z,1009.49
2017-07-21T06:44:06.772Z,1009.52
2017-07-21T06:45:06.755Z,1009.52
2017-07-21T06:46:06.746Z,1009.48
2017-07-21T06:47:06.734Z,1009.48
2017-07-21T06:48:06.722Z,1009.45
2017-07-21T06:49:06.716Z,1009.49
2017-07-21T06:50:06.699Z,1009.51
2017-07-21T06:51:06.689Z,1009.52
2017-07-21T06:52:06.676Z,1009.49
2017-07-21T06:53:06.665Z,1009.45
2017-07-21T06:54:06.657Z,1009.47
2017-07-21T06:55:06.647Z,1009.49
2017-07-21T06:56:06.631Z,1009.5
2017-07-21T06:57:06.622Z,1009.52
2017-07-21T06:58:06.613Z,1009.55
2017-07-21T06:59:06.605Z,1009.57
2017-07-21T07:00:06.589Z,1009.57
2017-07-21T07:01:06.580Z,1009.55
2017-07-21T07:02:06.578Z,1009.57
2017-07-21T07:03:06.561Z,1009.59
2017-07-21T07:04:06.548Z,1009.62
2017-07-21T07:05:06.540Z,1009.61
2017-07-21T07:06:06.527Z,1009.63
2017-07-21T07:07:06.516Z,1009.63
2017-07-21T07:08:06.514Z,1009.59
2017-07-21T07:09:06.496Z,1009.61
2017-07-21T07:10:06.484Z,1009.59
2017-07-21T07:11:06.475Z,1009.62
2017-07-21T07:12:06.469Z,1009.61
2017-07-21T07:13:06.472Z,1009.6
2017-07-21T07:14:06.447Z,1009.65
2017-07-21T07:15:06.438Z,1009.66
2017-07-21T07:16:06.423Z,1009.67
2017-07-21T07:17:06.420Z,1009.68
2017-07-21T07:18:06.409Z,1009.69
2017-07-21T07:19:06.399Z,1009.68
2017-07-21T07:20:06.393Z,1009.68
2017-07-21T07:21:06.381Z,1009.66
2017-07-21T07:22:06.424Z,1009.69
2017-07-21T07:23:06.362Z,1009.62
2017-07-21T07:24:06.353Z,1009.62
2017-07-21T07:25:06.351Z,1009.63
2017-07-21T07:26:06.335Z,1009.65
2017-07-21T07:27:06.332Z,1009.66
2017-07-21T07:28:06.316Z,1009.68
2017-07-21T07:29:06.310Z,1009.63
2017-07-21T07:30:06.348Z,1009.67
2017-07-21T07:31:06.291Z,1009.64
2017-07-21T07:32:06.282Z,1009.59
2017-07-21T07:33:06.274Z,1009.59
2017-07-21T07:34:06.271Z,1009.61
2017-07-21T07:35:07.857Z,1009.6
2017-07-21T07:36:06.247Z,1009.58
2017-07-21T07:37:06.252Z,1009.59
2017-07-21T07:38:06.231Z,1009.6
2017-07-21T07:39:06.225Z,1009.56
2017-07-21T07:40:06.221Z,1009.58
2017-07-21T07:41:06.208Z,1009.53
2017-07-21T07:42:06.200Z,1009.57
2017-07-21T07:43:06.192Z,1009.56
2017-07-21T07:44:06.186Z,1009.56
2017-07-21T07:45:06.175Z,1009.56
2017-07-21T07:46:06.169Z,1009.54
2017-07-21T07:47:06.160Z,1009.53
2017-07-21T07:48:06.151Z,1009.54
2017-07-21T07:49:06.148Z,1009.55
2017-07-21T07:50:06.138Z,1009.53
2017-07-21T07:51:06.132Z,1009.55
2017-07-21T07:52:06.124Z,1009.55
2017-07-21T07:53:06.119Z,1009.53
2017-07-21T07:54:06.111Z,1009.52
2017-07-21T07:55:06.106Z,1009.54
2017-07-21T07:56:06.095Z,1009.53
2017-07-21T07:57:06.087Z,1009.5
2017-07-21T07:58:06.082Z,1009.53
2017-07-21T07:59:06.075Z,1009.49
2017-07-21T08:00:06.070Z,1009.47
2017-07-21T08:01:06.059Z,1009.48
2017-07-21T08:02:06.056Z,1009.55
2017-07-21T08:03:06.046Z,1009.55
2017-07-21T08:04:06.043Z,1009.53
2017-07-21T08:05:06.034Z,1009.57
2017-07-21T08:06:06.025Z,1009.57
2017-07-21T08:07:06.047Z,1009.61
2017-07-21T08:08:06.013Z,1009.63
2017-07-21T08:09:06.006Z,1009.61
2017-07-21T08:10:06.000Z,1009.58
2017-07-21T08:11:05.995Z,1009.59
2017-07-21T08:12:05.986Z,1009.54
2017-07-21T08:13:05.981Z,1009.54
2017-07-21T08:14:05.977Z,1009.53
2017-07-21T08:15:05.973Z,1009.52
2017-07-21T08:16:05.962Z,1009.54
2017-07-21T08:17:05.957Z,1009.55
2017-07-21T08:18:05.950Z,1009.56
2017-07-21T08:19:05.941Z,1009.51
2017-07-21T08:20:05.937Z,1009.51
2017-07-21T08:21:05.931Z,1009.54
2017-07-21T08:22:05.926Z,1009.5
2017-07-21T08:23:05.915Z,1009.54
2017-07-21T08:24:05.915Z,1009.57
2017-07-21T08:25:05.954Z,1009.55
2017-07-21T08:26:05.900Z,1009.55
2017-07-21T08:27:05.890Z,1009.48
2017-07-21T08:28:05.886Z,1009.5
2017-07-21T08:29:05.879Z,1009.53
2017-07-21T08:30:05.874Z,1009.49
2017-07-21T08:31:05.866Z,1009.5
2017-07-21T08:32:05.863Z,1009.55
2017-07-21T08:33:05.863Z,1009.53
2017-07-21T08:34:05.896Z,1009.49
2017-07-21T08:35:05.841Z,1009.58
2017-07-21T08:36:05.885Z,1009.53
2017-07-21T08:37:05.831Z,1009.57
2017-07-21T08:38:05.820Z,1009.55
2017-07-21T08:39:05.816Z,1009.57
2017-07-21T08:40:05.811Z,1009.59
2017-07-21T08:41:05.806Z,1009.58
2017-07-21T08:42:05.799Z,1009.53
2017-07-21T08:43:05.799Z,1009.57
2017-07-21T08:44:05.790Z,1009.6
2017-07-21T08:45:05.783Z,1009.53
2017-07-21T08:46:05.776Z,1009.6
2017-07-21T08:47:05.772Z,1009.59
2017-07-21T08:48:05.773Z,1009.63
2017-07-21T08:49:05.761Z,1009.62
2017-07-21T08:50:05.751Z,1009.61
2017-07-21T08:51:06.000Z,1009.57
2017-07-21T08:52:05.736Z,1009.54
2017-07-21T08:53:05.736Z,1009.56
2017-07-21T08:54:05.728Z,1009.57
2017-07-21T08:55:05.724Z,1009.6
2017-07-21T08:56:05.718Z,1009.63
2017-07-21T08:57:05.714Z,1009.65
2017-07-21T08:58:05.708Z,1009.64
2017-07-21T08:59:05.704Z,1009.63
2017-07-21T09:00:05.701Z,1009.64
2017-07-21T09:01:05.694Z,1009.6
2017-07-21T09:02:05.686Z,1009.63
2017-07-21T09:03:05.679Z,1009.64
2017-07-21T09:04:05.673Z,1009.65
2017-07-21T09:05:05.678Z,1009.65
2017-07-21T09:06:05.666Z,1009.63
2017-07-21T09:07:05.657Z,1009.61
2017-07-21T09:08:05.651Z,1009.63
2017-07-21T09:09:05.647Z,1009.66
2017-07-21T09:10:05.644Z,1009.61
2017-07-21T09:11:05.635Z,1009.65
2017-07-21T09:12:05.633Z,1009.7
2017-07-21T09:13:05.624Z,1009.65
2017-07-21T09:14:05.618Z,1009.66
2017-07-21T09:15:05.615Z,1009.66
2017-07-21T09:16:05.608Z,1009.68
2017-07-21T09:17:05.606Z,1009.7
2017-07-21T09:18:05.599Z,1009.68
2017-07-21T09:19:05.592Z,1009.63
2017-07-21T09:20:05.589Z,1009.55
2017-07-21T09:21:05.583Z,1009.62
2017-07-21T09:22:05.589Z,1009.57
2017-07-21T09:23:05.572Z,1009.57
2017-07-21T09:24:05.568Z,1009.55
2017-07-21T09:25:05.561Z,1009.61
2017-07-21T09:26:05.557Z,1009.57
2017-07-21T09:27:05.549Z,1009.59
2017-07-21T09:28:05.545Z,1009.6
2017-07-21T09:29:05.540Z,1009.61
2017-07-21T09:30:05.534Z,1009.59
2017-07-21T09:31:05.529Z,1009.55
2017-07-21T09:32:05.524Z,1009.53
2017-07-21T09:33:05.521Z,1009.54
2017-07-21T09:34:05.514Z,1009.52
2017-07-21T09:35:05.509Z,1009.52
2017-07-21T09:36:05.501Z,1009.52
2017-07-21T09:37:05.746Z,1009.57
2017-07-21T09:38:05.492Z,1009.55
2017-07-21T09:39:05.485Z,1009.59
2017-07-21T09:40:05.479Z,1009.54
2017-07-21T09:41:05.473Z,1009.62
2017-07-21T09:42:05.468Z,1009.57
2017-07-21T09:43:05.463Z,1009.58
2017-07-21T09:44:05.457Z,1009.52
2017-07-21T09:45:05.450Z,1009.53
2017-07-21T09:46:05.447Z,1009.51
2017-07-21T09:47:05.440Z,1009.5
2017-07-21T09:48:05.434Z,1009.51
2017-07-21T09:49:05.429Z,1009.48
2017-07-21T09:50:05.419Z,1009.51
2017-07-21T09:51:05.416Z,1009.54
2017-07-21T09:52:05.414Z,1009.53
2017-07-21T09:53:05.406Z,1009.56
2017-07-21T09:54:05.406Z,1009.57
2017-07-21T09:55:05.398Z,1009.56
2017-07-21T09:56:05.390Z,1009.54
2017-07-21T09:57:05.385Z,1009.47
2017-07-21T09:58:05.381Z,1009.51
2017-07-21T09:59:05.373Z,1009.46
2017-07-21T10:00:05.377Z,1009.48
2017-07-21T10:01:05.369Z,1009.53
2017-07-21T10:02:05.363Z,1009.49
2017-07-21T10:03:05.356Z,1009.47
2017-07-21T10:04:05.350Z,1009.49
2017-07-21T10:05:05.347Z,1009.54
2017-07-21T10:06:05.340Z,1009.48
2017-07-21T10:07:05.332Z,1009.49
2017-07-21T10:08:05.330Z,1009.47
2017-07-21T10:09:05.322Z,1009.56
2017-07-21T10:10:05.317Z,1009.53
2017-07-21T10:11:05.311Z,1009.48
2017-07-21T10:12:05.304Z,1009.5
2017-07-21T10:13:05.300Z,1009.47
2017-07-21T10:14:05.295Z,1009.45
2017-07-21T10:15:05.292Z,1009.5
2017-07-21T10:16:05.284Z,1009.5
2017-07-21T10:17:05.286Z,1009.54
2017-07-21T10:18:05.277Z,1009.51
2017-07-21T10:19:05.267Z,1009.47
2017-07-21T10:20:05.261Z,1009.51
2017-07-21T10:21:05.252Z,1009.52
2017-07-21T10:22:05.251Z,1009.49
2017-07-21T10:23:05.245Z,1009.47
2017-07-21T10:24:05.238Z,1009.48
2017-07-21T10:25:05.236Z,1009.5
2017-07-21T10:26:05.227Z,1009.48
2017-07-21T10:27:05.223Z,1009.45
2017-07-21T10:28:05.220Z,1009.36
2017-07-21T10:29:05.215Z,1009.41
2017-07-21T10:30:05.206Z,1009.42
2017-07-21T10:31:05.203Z,1009.38
2017-07-21T10:32:05.193Z,1009.36
2017-07-21T10:33:05.190Z,1009.36
2017-07-21T10:34:05.186Z,1009.29
2017-07-21T10:35:05.176Z,1009.22
2017-07-21T10:36:05.220Z,1009.25
2017-07-21T10:37:05.163Z,1009.29
2017-07-21T10:38:05.156Z,1009.32
2017-07-21T10:39:05.150Z,1009.36
2017-07-21T10:40:05.145Z,1009.3
2017-07-21T10:41:05.143Z,1009.27
2017-07-21T10:42:05.132Z,1009.24
2017-07-21T10:43:05.129Z,1009.25
2017-07-21T10:44:05.122Z,1009.18
2017-07-21T10:45:05.115Z,1009.16
2017-07-21T10:46:05.107Z,1009.16
2017-07-21T10:47:05.099Z,1009.17
2017-07-21T10:48:05.093Z,1009.14
2017-07-21T10:49:05.086Z,1009.16
2017-07-21T10:51:05.128Z,1009.16
2017-07-21T10:52:05.069Z,1009.11
2017-07-21T10:53:05.061Z,1009.2
2017-07-21T10:54:05.062Z,1009.13
2017-07-21T10:55:05.047Z,1009.15
2017-07-21T10:56:05.041Z,1009.16
2017-07-21T10:57:05.033Z,1009.15
2017-07-21T10:58:05.027Z,1009.13
2017-07-21T10:59:05.020Z,1009.09
2017-07-21T11:00:05.384Z,1009.14
2017-07-21T11:01:05.004Z,1009.18
2017-07-21T11:02:05.328Z,1009.11
2017-07-21T11:03:05.334Z,1009.13
2017-07-21T11:04:05.397Z,1009.09
2017-07-21T11:05:04.981Z,1009.11
2017-07-21T11:06:04.973Z,1009.06
2017-07-21T11:07:04.971Z,1009.04
2017-07-21T11:08:04.963Z,1009.06
2017-07-21T11:09:04.976Z,1009.08
2017-07-21T11:10:04.951Z,1009
2017-07-21T11:11:04.949Z,1009.05
2017-07-21T11:12:04.940Z,1009.03
2017-07-21T11:13:04.953Z,1009.03
2017-07-21T11:14:04.929Z,1008.96
2017-07-21T11:15:04.924Z,1008.95
2017-07-21T11:16:04.928Z,1008.95
2017-07-21T11:17:04.913Z,1008.95
2017-07-21T11:18:04.907Z,1008.91
2017-07-21T11:19:04.894Z,1008.92
2017-07-21T11:20:04.894Z,1008.94
2017-07-21T11:21:04.883Z,1008.89
2017-07-21T11:22:04.877Z,1008.95
2017-07-21T11:23:04.873Z,1009
2017-07-21T11:24:04.882Z,1008.92
2017-07-21T11:25:04.862Z,1008.93
2017-07-21T11:26:04.849Z,1008.92
2017-07-21T11:27:04.840Z,1008.91
2017-07-21T11:28:04.837Z,1008.82
2017-07-21T11:29:04.822Z,1008.83
2017-07-21T11:30:04.817Z,1008.82
2017-07-21T11:31:04.802Z,1008.9
2017-07-21T11:32:04.850Z,1008.85
2017-07-21T11:33:04.793Z,1008.87
2017-07-21T11:34:04.776Z,1008.92
2017-07-21T11:35:04.762Z,1008.88
2017-07-21T11:36:04.799Z,1008.8
2017-07-21T11:37:04.744Z,1008.8
2017-07-21T11:38:04.731Z,1008.8
2017-07-21T11:39:04.710Z,1008.8
2017-07-21T11:40:04.759Z,1008.82
2017-07-21T11:41:04.683Z,1008.84
2017-07-21T11:42:04.670Z,1008.84
2017-07-21T11:43:04.655Z,1008.82
2017-07-21T11:44:04.640Z,1008.76
2017-07-21T11:45:04.630Z,1008.78
2017-07-21T11:46:04.616Z,1008.74
2017-07-21T11:47:04.599Z,1008.81
2017-07-21T11:48:04.585Z,1008.84
2017-07-21T11:49:04.571Z,1008.77
2017-07-21T11:50:04.556Z,1008.81
2017-07-21T11:51:04.541Z,1008.83
2017-07-21T11:52:04.526Z,1008.8
2017-07-21T11:53:04.515Z,1008.81
2017-07-21T11:54:04.495Z,1008.79
2017-07-21T11:55:04.480Z,1008.78
2017-07-21T11:56:04.465Z,1008.82
2017-07-21T11:57:04.451Z,1008.85
2017-07-21T11:58:04.431Z,1008.77
2017-07-21T11:59:04.418Z,1008.79
2017-07-21T12:00:04.404Z,1008.76
2017-07-21T12:01:04.393Z,1008.79
2017-07-21T12:02:04.425Z,1008.8
2017-07-21T12:03:04.356Z,1008.78
2017-07-21T12:04:04.345Z,1008.76
2017-07-21T12:05:04.334Z,1008.77
2017-07-21T12:06:04.308Z,1008.68
2017-07-21T12:07:04.293Z,1008.72
2017-07-21T12:08:04.281Z,1008.68
2017-07-21T12:09:04.261Z,1008.65